sensor_id;sensor_type;location;lat;lon;timestamp;pressure;altitude;pressure_sealevel;temperature;humidity
47738;BME280;33502;47.182;27.506;2022-10-31T00:00:05;100542.69;;;8.42;100.00
47738;BME280;33502;47.182;27.506;2022-10-31T00:02:37;100542.88;;;8.34;100.00
47738;BME280;33502;47.182;27.506;2022-10-31T00:05:02;100537.81;;;8.28;100.00
47738;BME280;33502;47.182;27.506;2022-10-31T00:07:28;100545.78;;;8.25;100.00
47738;BME280;33502;47.182;27.506;2022-10-31T00:09:54;100540.81;;;8.16;100.00
47738;BME280;33502;47.182;27.506;2022-10-31T00:12:20;100539.22;;;8.10;100.00
47738;BME280;33502;47.182;27.506;2022-10-31T00:14:45;100545.53;;;8.04;100.00
47738;BME280;33502;47.182;27.506;2022-10-31T00:17:11;100546.47;;;8.02;100.00
47738;BME280;33502;47.182;27.506;2022-10-31T00:19:37;100546.41;;;8.05;100.00
47738;BME280;33502;47.182;27.506;2022-10-31T00:22:02;100551.50;;;8.11;100.00
47738;BME280;33502;47.182;27.506;2022-10-31T00:24:28;100547.63;;;8.23;100.00
47738;BME280;33502;47.182;27.506;2022-10-31T00:26:54;100545.44;;;8.37;100.00
47738;BME280;33502;47.182;27.506;2022-10-31T00:29:20;100547.53;;;8.56;100.00
47738;BME280;33502;47.182;27.506;2022-10-31T00:31:46;100536.13;;;8.84;100.00
47738;BME280;33502;47.182;27.506;2022-10-31T00:34:12;100533.78;;;9.01;100.00
47738;BME280;33502;47.182;27.506;2022-10-31T00:36:38;100529.94;;;9.11;100.00
47738;BME280;33502;47.182;27.506;2022-10-31T00:39:03;100531.25;;;9.25;100.00
47738;BME280;33502;47.182;27.506;2022-10-31T00:41:29;100532.66;;;9.35;100.00
47738;BME280;33502;47.182;27.506;2022-10-31T00:43:55;100532.50;;;9.39;100.00
47738;BME280;33502;47.182;27.506;2022-10-31T00:46:21;100525.28;;;9.45;100.00
47738;BME280;33502;47.182;27.506;2022-10-31T00:48:49;100529.81;;;9.41;100.00
47738;BME280;33502;47.182;27.506;2022-10-31T00:51:15;100523.00;;;9.34;100.00
47738;BME280;33502;47.182;27.506;2022-10-31T00:53:41;100536.66;;;9.21;100.00
47738;BME280;33502;47.182;27.506;2022-10-31T00:56:07;100529.25;;;9.06;100.00
47738;BME280;33502;47.182;27.506;2022-10-31T00:58:32;100538.34;;;8.96;100.00
47738;BME280;33502;47.182;27.506;2022-10-31T01:00:58;100537.91;;;8.83;100.00
47738;BME280;33502;47.182;27.506;2022-10-31T01:03:29;100532.22;;;8.67;100.00
47738;BME280;33502;47.182;27.506;2022-10-31T01:06:04;100529.91;;;8.58;100.00
47738;BME280;33502;47.182;27.506;2022-10-31T01:08:32;100529.84;;;8.59;100.00
47738;BME280;33502;47.182;27.506;2022-10-31T01:11:10;100528.38;;;8.51;100.00
47738;BME280;33502;47.182;27.506;2022-10-31T01:13:39;100535.84;;;8.35;100.00
47738;BME280;33502;47.182;27.506;2022-10-31T01:16:07;100530.94;;;8.22;100.00
47738;BME280;33502;47.182;27.506;2022-10-31T01:18:35;100522.50;;;8.10;100.00
47738;BME280;33502;47.182;27.506;2022-10-31T01:21:09;100526.34;;;7.99;100.00
47738;BME280;33502;47.182;27.506;2022-10-31T01:23:36;100523.06;;;7.91;100.00
47738;BME280;33502;47.182;27.506;2022-10-31T01:28:29;100526.81;;;7.82;100.00
47738;BME280;33502;47.182;27.506;2022-10-31T01:30:55;100516.41;;;7.78;100.00
47738;BME280;33502;47.182;27.506;2022-10-31T01:33:20;100513.63;;;7.82;100.00
47738;BME280;33502;47.182;27.506;2022-10-31T01:35:46;100509.31;;;7.80;100.00
47738;BME280;33502;47.182;27.506;2022-10-31T01:38:12;100510.22;;;7.79;100.00
47738;BME280;33502;47.182;27.506;2022-10-31T01:40:38;100513.81;;;7.76;100.00
47738;BME280;33502;47.182;27.506;2022-10-31T01:43:03;100507.72;;;7.74;100.00
47738;BME280;33502;47.182;27.506;2022-10-31T01:45:29;100514.94;;;7.66;100.00
47738;BME280;33502;47.182;27.506;2022-10-31T01:47:55;100512.47;;;7.61;100.00
47738;BME280;33502;47.182;27.506;2022-10-31T01:50:47;100525.97;;;7.82;100.00
47738;BME280;33502;47.182;27.506;2022-10-31T01:53:15;100534.16;;;8.02;100.00
47738;BME280;33502;47.182;27.506;2022-10-31T01:55:44;100525.38;;;8.02;100.00
47738;BME280;33502;47.182;27.506;2022-10-31T01:58:19;100519.31;;;7.98;100.00
47738;BME280;33502;47.182;27.506;2022-10-31T02:00:48;100522.25;;;7.89;100.00
47738;BME280;33502;47.182;27.506;2022-10-31T02:03:17;100531.25;;;7.80;100.00
47738;BME280;33502;47.182;27.506;2022-10-31T02:05:45;100530.56;;;7.74;100.00
47738;BME280;33502;47.182;27.506;2022-10-31T02:08:33;100534.03;;;7.76;100.00
47738;BME280;33502;47.182;27.506;2022-10-31T02:11:00;100528.69;;;7.77;100.00
47738;BME280;33502;47.182;27.506;2022-10-31T02:13:28;100525.97;;;7.82;100.00
47738;BME280;33502;47.182;27.506;2022-10-31T02:15:57;100529.28;;;7.89;100.00
47738;BME280;33502;47.182;27.506;2022-10-31T02:18:27;100533.50;;;7.94;100.00
47738;BME280;33502;47.182;27.506;2022-10-31T02:26:29;100526.25;;;8.62;100.00
47738;BME280;33502;47.182;27.506;2022-10-31T02:32:08;100527.50;;;9.05;100.00
47738;BME280;33502;47.182;27.506;2022-10-31T02:40:11;100537.47;;;9.74;100.00
47738;BME280;33502;47.182;27.506;2022-10-31T02:43:09;100537.56;;;9.96;100.00
47738;BME280;33502;47.182;27.506;2022-10-31T02:48:14;100546.59;;;10.14;100.00
47738;BME280;33502;47.182;27.506;2022-10-31T02:50:43;100542.00;;;10.19;100.00
47738;BME280;33502;47.182;27.506;2022-10-31T02:53:15;100538.31;;;10.23;100.00
47738;BME280;33502;47.182;27.506;2022-10-31T02:55:47;100537.25;;;10.27;100.00
47738;BME280;33502;47.182;27.506;2022-10-31T02:58:19;100530.19;;;10.28;100.00
47738;BME280;33502;47.182;27.506;2022-10-31T03:03:51;100539.91;;;10.27;100.00
47738;BME280;33502;47.182;27.506;2022-10-31T03:12:10;100550.16;;;10.13;100.00
47738;BME280;33502;47.182;27.506;2022-10-31T03:14:43;100548.66;;;10.06;100.00
47738;BME280;33502;47.182;27.506;2022-10-31T03:17:27;100546.53;;;9.92;100.00
47738;BME280;33502;47.182;27.506;2022-10-31T03:19:58;100542.66;;;9.77;100.00
47738;BME280;33502;47.182;27.506;2022-10-31T03:22:29;100551.00;;;9.65;100.00
47738;BME280;33502;47.182;27.506;2022-10-31T03:25:00;100548.13;;;9.46;100.00
47738;BME280;33502;47.182;27.506;2022-10-31T03:27:30;100552.13;;;9.32;100.00
47738;BME280;33502;47.182;27.506;2022-10-31T03:30:01;100560.56;;;9.17;100.00
47738;BME280;33502;47.182;27.506;2022-10-31T03:32:50;100558.38;;;9.03;100.00
47738;BME280;33502;47.182;27.506;2022-10-31T03:35:19;100558.16;;;8.82;100.00
47738;BME280;33502;47.182;27.506;2022-10-31T03:37:49;100569.34;;;8.62;100.00
47738;BME280;33502;47.182;27.506;2022-10-31T03:40:16;100569.03;;;8.43;100.00
47738;BME280;33502;47.182;27.506;2022-10-31T03:42:51;100566.00;;;8.26;100.00
47738;BME280;33502;47.182;27.506;2022-10-31T03:45:23;100570.03;;;8.08;100.00
47738;BME280;33502;47.182;27.506;2022-10-31T03:47:50;100566.06;;;7.93;100.00
47738;BME280;33502;47.182;27.506;2022-10-31T03:50:17;100564.69;;;7.80;100.00
47738;BME280;33502;47.182;27.506;2022-10-31T03:52:57;100552.63;;;7.70;100.00
47738;BME280;33502;47.182;27.506;2022-10-31T03:55:29;100554.56;;;7.64;100.00
47738;BME280;33502;47.182;27.506;2022-10-31T03:58:00;100559.16;;;7.56;100.00
47738;BME280;33502;47.182;27.506;2022-10-31T04:00:29;100562.97;;;7.44;100.00
47738;BME280;33502;47.182;27.506;2022-10-31T04:05:34;100562.50;;;7.29;100.00
47738;BME280;33502;47.182;27.506;2022-10-31T04:08:04;100557.50;;;7.18;100.00
47738;BME280;33502;47.182;27.506;2022-10-31T04:10:34;100568.22;;;7.10;100.00
47738;BME280;33502;47.182;27.506;2022-10-31T04:13:09;100562.28;;;7.02;100.00
47738;BME280;33502;47.182;27.506;2022-10-31T04:15:52;100561.63;;;6.94;100.00
47738;BME280;33502;47.182;27.506;2022-10-31T04:18:24;100557.31;;;6.90;100.00
47738;BME280;33502;47.182;27.506;2022-10-31T04:21:04;100564.31;;;6.91;100.00
47738;BME280;33502;47.182;27.506;2022-10-31T04:23:30;100559.94;;;6.90;100.00
47738;BME280;33502;47.182;27.506;2022-10-31T04:25:57;100556.63;;;6.81;100.00
47738;BME280;33502;47.182;27.506;2022-10-31T04:28:23;100562.03;;;6.75;100.00
47738;BME280;33502;47.182;27.506;2022-10-31T04:30:49;100559.59;;;6.68;100.00
47738;BME280;33502;47.182;27.506;2022-10-31T04:33:15;100558.81;;;6.62;100.00
47738;BME280;33502;47.182;27.506;2022-10-31T04:35:44;100564.09;;;6.61;100.00
47738;BME280;33502;47.182;27.506;2022-10-31T04:38:10;100551.00;;;6.59;100.00
47738;BME280;33502;47.182;27.506;2022-10-31T04:40:37;100558.91;;;6.59;100.00
47738;BME280;33502;47.182;27.506;2022-10-31T04:43:21;100563.94;;;6.69;100.00
47738;BME280;33502;47.182;27.506;2022-10-31T04:45:47;100566.28;;;6.82;100.00
47738;BME280;33502;47.182;27.506;2022-10-31T04:48:13;100566.94;;;6.91;100.00
47738;BME280;33502;47.182;27.506;2022-10-31T04:50:41;100564.75;;;7.08;100.00
47738;BME280;33502;47.182;27.506;2022-10-31T04:53:07;100563.53;;;7.23;100.00
47738;BME280;33502;47.182;27.506;2022-10-31T04:55:45;100566.63;;;7.39;100.00
47738;BME280;33502;47.182;27.506;2022-10-31T04:58:22;100573.34;;;7.51;100.00
47738;BME280;33502;47.182;27.506;2022-10-31T05:00:52;100578.53;;;7.54;100.00
47738;BME280;33502;47.182;27.506;2022-10-31T05:03:19;100577.69;;;7.53;100.00
47738;BME280;33502;47.182;27.506;2022-10-31T05:05:46;100575.06;;;7.53;100.00
47738;BME280;33502;47.182;27.506;2022-10-31T05:08:12;100578.53;;;7.54;100.00
47738;BME280;33502;47.182;27.506;2022-10-31T05:10:38;100581.97;;;7.57;100.00
47738;BME280;33502;47.182;27.506;2022-10-31T05:13:04;100581.06;;;7.58;100.00
47738;BME280;33502;47.182;27.506;2022-10-31T05:15:30;100579.22;;;7.60;100.00
47738;BME280;33502;47.182;27.506;2022-10-31T05:18:22;100582.38;;;7.75;100.00
47738;BME280;33502;47.182;27.506;2022-10-31T05:21:14;100588.22;;;7.86;100.00
47738;BME280;33502;47.182;27.506;2022-10-31T05:23:52;100588.91;;;7.93;100.00
47738;BME280;33502;47.182;27.506;2022-10-31T05:26:19;100587.94;;;7.97;100.00
47738;BME280;33502;47.182;27.506;2022-10-31T05:28:46;100602.78;;;8.01;100.00
47738;BME280;33502;47.182;27.506;2022-10-31T05:31:12;100607.06;;;8.05;100.00
47738;BME280;33502;47.182;27.506;2022-10-31T05:33:38;100604.19;;;8.13;100.00
47738;BME280;33502;47.182;27.506;2022-10-31T05:36:23;100604.97;;;8.16;100.00
47738;BME280;33502;47.182;27.506;2022-10-31T05:39:12;100611.91;;;8.20;100.00
47738;BME280;33502;47.182;27.506;2022-10-31T05:41:43;100617.91;;;8.26;100.00
47738;BME280;33502;47.182;27.506;2022-10-31T05:44:18;100613.28;;;8.34;100.00
47738;BME280;33502;47.182;27.506;2022-10-31T05:46:53;100613.09;;;8.41;100.00
47738;BME280;33502;47.182;27.506;2022-10-31T05:49:41;100620.63;;;8.54;100.00
47738;BME280;33502;47.182;27.506;2022-10-31T05:52:25;100626.34;;;8.70;100.00
47738;BME280;33502;47.182;27.506;2022-10-31T05:55:02;100619.41;;;8.94;100.00
47738;BME280;33502;47.182;27.506;2022-10-31T05:57:29;100613.59;;;9.11;100.00
47738;BME280;33502;47.182;27.506;2022-10-31T05:59:54;100614.16;;;9.47;100.00
47738;BME280;33502;47.182;27.506;2022-10-31T06:02:22;100624.34;;;10.35;100.00
47738;BME280;33502;47.182;27.506;2022-10-31T06:05:06;100628.53;;;10.88;100.00
47738;BME280;33502;47.182;27.506;2022-10-31T06:07:33;100633.38;;;10.76;100.00
47738;BME280;33502;47.182;27.506;2022-10-31T06:10:00;100627.41;;;10.48;100.00
47738;BME280;33502;47.182;27.506;2022-10-31T06:12:28;100625.63;;;10.23;100.00
47738;BME280;33502;47.182;27.506;2022-10-31T06:15:32;100634.50;;;9.97;100.00
47738;BME280;33502;47.182;27.506;2022-10-31T06:18:04;100639.38;;;9.84;100.00
47738;BME280;33502;47.182;27.506;2022-10-31T06:20:34;100640.59;;;9.74;100.00
47738;BME280;33502;47.182;27.506;2022-10-31T06:23:05;100640.09;;;9.63;100.00
47738;BME280;33502;47.182;27.506;2022-10-31T06:25:33;100627.41;;;9.72;100.00
47738;BME280;33502;47.182;27.506;2022-10-31T06:27:59;100632.41;;;9.82;100.00
47738;BME280;33502;47.182;27.506;2022-10-31T06:30:34;100635.81;;;9.85;100.00
47738;BME280;33502;47.182;27.506;2022-10-31T06:33:02;100639.56;;;9.78;100.00
47738;BME280;33502;47.182;27.506;2022-10-31T06:35:29;100650.28;;;9.75;100.00
47738;BME280;33502;47.182;27.506;2022-10-31T06:37:56;100644.22;;;9.96;100.00
47738;BME280;33502;47.182;27.506;2022-10-31T06:40:35;100638.63;;;10.06;100.00
47738;BME280;33502;47.182;27.506;2022-10-31T06:43:23;100645.69;;;10.05;100.00
47738;BME280;33502;47.182;27.506;2022-10-31T06:46:01;100643.88;;;10.07;100.00
47738;BME280;33502;47.182;27.506;2022-10-31T06:48:34;100648.06;;;10.13;100.00
47738;BME280;33502;47.182;27.506;2022-10-31T06:51:25;100642.03;;;10.34;100.00
47738;BME280;33502;47.182;27.506;2022-10-31T06:53:51;100649.72;;;10.88;100.00
47738;BME280;33502;47.182;27.506;2022-10-31T06:56:18;100647.53;;;11.43;100.00
47738;BME280;33502;47.182;27.506;2022-10-31T06:58:50;100650.47;;;11.57;100.00
47738;BME280;33502;47.182;27.506;2022-10-31T07:01:24;100649.81;;;11.95;100.00
47738;BME280;33502;47.182;27.506;2022-10-31T07:03:50;100657.44;;;12.03;100.00
47738;BME280;33502;47.182;27.506;2022-10-31T07:06:16;100658.44;;;11.78;100.00
47738;BME280;33502;47.182;27.506;2022-10-31T07:08:42;100657.66;;;11.98;100.00
47738;BME280;33502;47.182;27.506;2022-10-31T07:11:08;100659.19;;;13.19;100.00
47738;BME280;33502;47.182;27.506;2022-10-31T07:13:33;100658.88;;;14.32;100.00
47738;BME280;33502;47.182;27.506;2022-10-31T07:16:06;100653.75;;;15.88;100.00
47738;BME280;33502;47.182;27.506;2022-10-31T07:18:35;100647.81;;;16.99;100.00
47738;BME280;33502;47.182;27.506;2022-10-31T07:21:01;100649.78;;;18.04;100.00
47738;BME280;33502;47.182;27.506;2022-10-31T07:23:27;100650.75;;;18.29;100.00
47738;BME280;33502;47.182;27.506;2022-10-31T07:26:11;100658.16;;;19.13;100.00
47738;BME280;33502;47.182;27.506;2022-10-31T07:28:42;100655.66;;;19.47;100.00
47738;BME280;33502;47.182;27.506;2022-10-31T07:31:08;100652.41;;;20.82;100.00
47738;BME280;33502;47.182;27.506;2022-10-31T07:33:38;100654.19;;;21.27;92.40
47738;BME280;33502;47.182;27.506;2022-10-31T07:36:23;100656.28;;;21.67;89.10
47738;BME280;33502;47.182;27.506;2022-10-31T07:38:51;100659.56;;;21.70;86.33
47738;BME280;33502;47.182;27.506;2022-10-31T07:41:17;100664.06;;;21.49;87.00
47738;BME280;33502;47.182;27.506;2022-10-31T07:43:45;100655.78;;;22.36;85.46
47738;BME280;33502;47.182;27.506;2022-10-31T07:46:16;100678.72;;;22.52;82.42
47738;BME280;33502;47.182;27.506;2022-10-31T07:49:00;100673.06;;;22.55;81.45
47738;BME280;33502;47.182;27.506;2022-10-31T07:51:45;100674.78;;;22.96;78.59
47738;BME280;33502;47.182;27.506;2022-10-31T07:54:33;100674.53;;;22.38;78.77
47738;BME280;33502;47.182;27.506;2022-10-31T07:56:59;100666.28;;;22.39;80.34
47738;BME280;33502;47.182;27.506;2022-10-31T07:59:25;100663.47;;;22.20;82.82
47738;BME280;33502;47.182;27.506;2022-10-31T08:01:53;100668.94;;;22.29;80.87
47738;BME280;33502;47.182;27.506;2022-10-31T08:04:48;100670.50;;;22.11;79.20
47738;BME280;33502;47.182;27.506;2022-10-31T08:07:36;100676.69;;;22.23;78.25
47738;BME280;33502;47.182;27.506;2022-10-31T08:10:05;100670.56;;;22.00;80.51
47738;BME280;33502;47.182;27.506;2022-10-31T08:12:31;100672.06;;;21.72;79.31
47738;BME280;33502;47.182;27.506;2022-10-31T08:14:57;100675.84;;;21.25;81.32
47738;BME280;33502;47.182;27.506;2022-10-31T08:17:23;100675.38;;;21.09;84.60
47738;BME280;33502;47.182;27.506;2022-10-31T08:19:56;100678.59;;;20.69;87.76
47738;BME280;33502;47.182;27.506;2022-10-31T08:22:28;100683.78;;;19.79;91.22
47738;BME280;33502;47.182;27.506;2022-10-31T08:24:54;100687.31;;;19.79;95.19
47738;BME280;33502;47.182;27.506;2022-10-31T08:27:19;100681.34;;;19.87;92.89
47738;BME280;33502;47.182;27.506;2022-10-31T08:29:46;100685.75;;;19.64;93.33
47738;BME280;33502;47.182;27.506;2022-10-31T08:32:12;100690.00;;;19.55;94.03
47738;BME280;33502;47.182;27.506;2022-10-31T08:34:53;100692.78;;;19.29;96.02
47738;BME280;33502;47.182;27.506;2022-10-31T08:37:42;100695.69;;;19.26;95.61
47738;BME280;33502;47.182;27.506;2022-10-31T08:40:09;100693.94;;;19.38;95.18
47738;BME280;33502;47.182;27.506;2022-10-31T08:42:34;100695.63;;;19.15;96.10
47738;BME280;33502;47.182;27.506;2022-10-31T08:45:01;100693.09;;;19.38;96.25
47738;BME280;33502;47.182;27.506;2022-10-31T08:47:28;100700.94;;;18.91;98.19
47738;BME280;33502;47.182;27.506;2022-10-31T08:49:55;100693.22;;;18.86;97.92
47738;BME280;33502;47.182;27.506;2022-10-31T08:52:23;100702.75;;;18.65;98.56
47738;BME280;33502;47.182;27.506;2022-10-31T08:54:51;100703.53;;;18.67;100.00
47738;BME280;33502;47.182;27.506;2022-10-31T08:57:35;100699.53;;;18.98;98.45
47738;BME280;33502;47.182;27.506;2022-10-31T09:00:01;100687.84;;;18.73;96.82
47738;BME280;33502;47.182;27.506;2022-10-31T09:02:57;100691.50;;;18.85;96.30
47738;BME280;33502;47.182;27.506;2022-10-31T09:05:23;100694.41;;;18.82;96.97
47738;BME280;33502;47.182;27.506;2022-10-31T09:07:49;100702.00;;;18.88;96.16
47738;BME280;33502;47.182;27.506;2022-10-31T09:10:17;100703.25;;;19.08;96.15
47738;BME280;33502;47.182;27.506;2022-10-31T09:12:44;100712.22;;;19.81;94.67
47738;BME280;33502;47.182;27.506;2022-10-31T09:15:21;100718.97;;;19.63;91.22
47738;BME280;33502;47.182;27.506;2022-10-31T09:18:08;100712.69;;;19.51;90.43
47738;BME280;33502;47.182;27.506;2022-10-31T09:20:45;100718.31;;;19.35;88.64
47738;BME280;33502;47.182;27.506;2022-10-31T09:23:14;100708.69;;;19.20;90.81
47738;BME280;33502;47.182;27.506;2022-10-31T09:25:40;100713.66;;;19.13;90.66
47738;BME280;33502;47.182;27.506;2022-10-31T09:28:24;100710.78;;;19.40;90.59
47738;BME280;33502;47.182;27.506;2022-10-31T09:30:52;100725.00;;;19.29;92.17
47738;BME280;33502;47.182;27.506;2022-10-31T09:33:37;100724.91;;;19.18;92.67
47738;BME280;33502;47.182;27.506;2022-10-31T09:36:23;100721.94;;;19.10;92.06
47738;BME280;33502;47.182;27.506;2022-10-31T09:38:49;100722.34;;;19.16;91.76
47738;BME280;33502;47.182;27.506;2022-10-31T09:49:36;100720.22;;;19.09;93.51
47738;BME280;33502;47.182;27.506;2022-10-31T09:52:11;100727.22;;;19.35;92.72
47738;BME280;33502;47.182;27.506;2022-10-31T09:54:49;100718.69;;;19.17;91.13
47738;BME280;33502;47.182;27.506;2022-10-31T09:57:24;100725.44;;;19.23;88.71
47738;BME280;33502;47.182;27.506;2022-10-31T09:59:51;100713.56;;;18.76;88.42
47738;BME280;33502;47.182;27.506;2022-10-31T10:02:34;100722.38;;;18.52;91.95
47738;BME280;33502;47.182;27.506;2022-10-31T10:05:10;100722.94;;;18.57;90.49
47738;BME280;33502;47.182;27.506;2022-10-31T10:08:03;100720.47;;;18.67;92.14
47738;BME280;33502;47.182;27.506;2022-10-31T10:22:39;100722.28;;;19.66;86.14
47738;BME280;33502;47.182;27.506;2022-10-31T10:25:20;100729.91;;;19.35;86.42
47738;BME280;33502;47.182;27.506;2022-10-31T10:33:41;100725.25;;;19.13;88.47
47738;BME280;33502;47.182;27.506;2022-10-31T10:38:53;100715.91;;;19.80;87.59
47738;BME280;33502;47.182;27.506;2022-10-31T10:41:23;100724.03;;;19.54;85.03
47738;BME280;33502;47.182;27.506;2022-10-31T10:43:51;100719.38;;;19.45;84.60
47738;BME280;33502;47.182;27.506;2022-10-31T10:49:09;100717.31;;;19.97;82.75
47738;BME280;33502;47.182;27.506;2022-10-31T10:59:37;100702.75;;;20.24;78.85
47738;BME280;33502;47.182;27.506;2022-10-31T11:02:17;100708.16;;;20.35;78.11
47738;BME280;33502;47.182;27.506;2022-10-31T11:04:43;100698.03;;;20.61;76.84
47738;BME280;33502;47.182;27.506;2022-10-31T11:07:12;100691.81;;;20.95;75.54
47738;BME280;33502;47.182;27.506;2022-10-31T11:09:38;100695.34;;;20.72;75.53
47738;BME280;33502;47.182;27.506;2022-10-31T11:12:21;100687.06;;;20.87;74.12
47738;BME280;33502;47.182;27.506;2022-10-31T11:14:53;100681.66;;;21.09;73.67
47738;BME280;33502;47.182;27.506;2022-10-31T11:17:31;100682.56;;;21.42;70.16
47738;BME280;33502;47.182;27.506;2022-10-31T11:22:44;100677.75;;;21.02;70.98
47738;BME280;33502;47.182;27.506;2022-10-31T11:28:01;100678.34;;;21.06;70.22
47738;BME280;33502;47.182;27.506;2022-10-31T11:30:28;100681.03;;;21.17;69.40
47738;BME280;33502;47.182;27.506;2022-10-31T11:32:54;100667.56;;;21.06;68.52
47738;BME280;33502;47.182;27.506;2022-10-31T11:35:22;100671.13;;;20.95;69.24
47738;BME280;33502;47.182;27.506;2022-10-31T11:37:50;100669.19;;;20.75;71.32
47738;BME280;33502;47.182;27.506;2022-10-31T11:40:18;100673.94;;;20.82;70.92
47738;BME280;33502;47.182;27.506;2022-10-31T11:42:46;100667.09;;;20.78;70.24
47738;BME280;33502;47.182;27.506;2022-10-31T11:45:35;100667.59;;;20.72;70.77
47738;BME280;33502;47.182;27.506;2022-10-31T11:48:02;100674.91;;;20.59;68.97
47738;BME280;33502;47.182;27.506;2022-10-31T11:50:41;100675.13;;;20.56;66.54
47738;BME280;33502;47.182;27.506;2022-10-31T11:53:16;100678.38;;;20.61;66.67
47738;BME280;33502;47.182;27.506;2022-10-31T11:55:42;100670.28;;;20.95;66.97
47738;BME280;33502;47.182;27.506;2022-10-31T11:58:25;100673.72;;;20.85;66.30
47738;BME280;33502;47.182;27.506;2022-10-31T12:00:54;100677.03;;;20.78;66.70
47738;BME280;33502;47.182;27.506;2022-10-31T12:05:55;100674.44;;;20.87;68.15
47738;BME280;33502;47.182;27.506;2022-10-31T12:08:29;100677.88;;;20.89;65.53
47738;BME280;33502;47.182;27.506;2022-10-31T12:13:34;100666.75;;;20.71;65.08
47738;BME280;33502;47.182;27.506;2022-10-31T12:22:20;100675.44;;;20.75;62.86
47738;BME280;33502;47.182;27.506;2022-10-31T12:30:59;100675.44;;;20.75;65.41
47738;BME280;33502;47.182;27.506;2022-10-31T12:45:13;100681.13;;;20.59;63.55
47738;BME280;33502;47.182;27.506;2022-10-31T12:48:10;100679.22;;;20.95;62.71
47738;BME280;33502;47.182;27.506;2022-10-31T12:53:15;100682.13;;;20.81;64.29
47738;BME280;33502;47.182;27.506;2022-10-31T12:58:24;100696.47;;;20.12;66.46
47738;BME280;33502;47.182;27.506;2022-10-31T13:01:04;100689.00;;;20.15;64.48
47738;BME280;33502;47.182;27.506;2022-10-31T13:03:38;100694.31;;;20.40;65.05
47738;BME280;33502;47.182;27.506;2022-10-31T13:06:13;100694.16;;;20.19;65.23
47738;BME280;33502;47.182;27.506;2022-10-31T13:08:47;100689.75;;;20.06;65.68
47738;BME280;33502;47.182;27.506;2022-10-31T13:11:19;100697.28;;;20.01;66.11
47738;BME280;33502;47.182;27.506;2022-10-31T13:16:41;100687.31;;;19.79;66.28
47738;BME280;33502;47.182;27.506;2022-10-31T13:19:18;100687.03;;;19.95;67.13
47738;BME280;33502;47.182;27.506;2022-10-31T13:21:50;100699.25;;;19.99;66.22
47738;BME280;33502;47.182;27.506;2022-10-31T13:24:21;100693.88;;;19.75;66.92
47738;BME280;33502;47.182;27.506;2022-10-31T13:26:53;100689.50;;;19.74;67.09
47738;BME280;33502;47.182;27.506;2022-10-31T13:31:49;100687.13;;;19.21;69.06
47738;BME280;33502;47.182;27.506;2022-10-31T13:34:26;100682.03;;;18.92;70.80
47738;BME280;33502;47.182;27.506;2022-10-31T13:37:13;100683.34;;;18.87;71.06
47738;BME280;33502;47.182;27.506;2022-10-31T13:42:55;100680.72;;;18.72;69.95
47738;BME280;33502;47.182;27.506;2022-10-31T13:45:24;100683.22;;;18.63;71.48
47738;BME280;33502;47.182;27.506;2022-10-31T13:50:32;100687.09;;;18.33;73.10
47738;BME280;33502;47.182;27.506;2022-10-31T13:53:18;100685.88;;;18.11;74.11
47738;BME280;33502;47.182;27.506;2022-10-31T13:56:15;100687.06;;;18.07;74.61
47738;BME280;33502;47.182;27.506;2022-10-31T13:58:58;100687.06;;;17.94;75.66
47738;BME280;33502;47.182;27.506;2022-10-31T14:01:24;100695.03;;;17.81;76.28
47738;BME280;33502;47.182;27.506;2022-10-31T14:04:00;100689.53;;;17.70;77.16
47738;BME280;33502;47.182;27.506;2022-10-31T14:06:43;100689.78;;;17.53;77.33
47738;BME280;33502;47.182;27.506;2022-10-31T14:12:07;100696.97;;;17.11;80.48
47738;BME280;33502;47.182;27.506;2022-10-31T14:14:42;100706.16;;;16.78;82.81
47738;BME280;33502;47.182;27.506;2022-10-31T14:17:16;100697.56;;;16.44;84.51
47738;BME280;33502;47.182;27.506;2022-10-31T14:19:43;100699.34;;;16.15;87.19
47738;BME280;33502;47.182;27.506;2022-10-31T14:22:20;100688.66;;;15.84;89.40
47738;BME280;33502;47.182;27.506;2022-10-31T14:24:46;100695.75;;;15.54;91.51
47738;BME280;33502;47.182;27.506;2022-10-31T14:29:50;100688.69;;;14.89;96.56
47738;BME280;33502;47.182;27.506;2022-10-31T14:32:23;100689.47;;;14.58;99.46
47738;BME280;33502;47.182;27.506;2022-10-31T14:50:37;100708.16;;;12.57;100.00
47738;BME280;33502;47.182;27.506;2022-10-31T14:53:12;100708.84;;;12.41;100.00
47738;BME280;33502;47.182;27.506;2022-10-31T14:55:48;100706.00;;;12.25;100.00
47738;BME280;33502;47.182;27.506;2022-10-31T14:58:21;100709.44;;;12.07;100.00
47738;BME280;33502;47.182;27.506;2022-10-31T15:00:50;100710.09;;;11.91;100.00
47738;BME280;33502;47.182;27.506;2022-10-31T15:03:22;100719.53;;;11.76;100.00
47738;BME280;33502;47.182;27.506;2022-10-31T15:05:52;100719.03;;;11.67;100.00
47738;BME280;33502;47.182;27.506;2022-10-31T15:10:54;100721.09;;;11.38;100.00
47738;BME280;33502;47.182;27.506;2022-10-31T15:13:21;100729.47;;;11.27;100.00
47738;BME280;33502;47.182;27.506;2022-10-31T15:15:49;100726.38;;;11.16;100.00
47738;BME280;33502;47.182;27.506;2022-10-31T15:18:23;100735.44;;;11.10;100.00
47738;BME280;33502;47.182;27.506;2022-10-31T15:20:51;100736.63;;;11.02;100.00
47738;BME280;33502;47.182;27.506;2022-10-31T15:23:36;100741.19;;;10.98;100.00
47738;BME280;33502;47.182;27.506;2022-10-31T15:26:04;100738.66;;;10.95;100.00